createdAt,value
2022-12-07T00:00:10.171Z,3.55
2022-12-07T00:01:10.058Z,3.56
2022-12-07T00:02:10.086Z,3.55
2022-12-07T00:03:10.117Z,3.62
2022-12-07T00:04:10.033Z,3.68
2022-12-07T00:05:10.148Z,3.68
2022-12-07T00:06:10.019Z,3.55
2022-12-07T00:07:10.018Z,3.66
2022-12-07T00:08:10.056Z,3.50
2022-12-07T00:09:10.634Z,3.59
2022-12-07T00:10:09.991Z,3.58
2022-12-07T00:11:10.981Z,3.48
2022-12-07T00:12:09.980Z,3.55
2022-12-07T00:13:09.975Z,3.47
2022-12-07T00:14:09.953Z,3.44
2022-12-07T00:15:10.947Z,3.48
2022-12-07T00:16:11.017Z,3.50
2022-12-07T00:17:09.932Z,3.42
2022-12-07T00:18:09.959Z,3.29
2022-12-07T00:19:09.917Z,3.19
2022-12-07T00:20:09.914Z,3.18
2022-12-07T00:21:09.900Z,3.10
2022-12-07T00:22:09.894Z,3.13
2022-12-07T00:23:09.914Z,3.22
2022-12-07T00:24:09.884Z,3.14
2022-12-07T00:25:09.984Z,3.21
2022-12-07T00:26:09.864Z,3.16
2022-12-07T00:28:09.905Z,3.28
2022-12-07T00:29:09.900Z,3.32
2022-12-07T00:30:09.893Z,3.37
2022-12-07T00:31:09.897Z,3.32
2022-12-07T00:32:11.067Z,3.40
2022-12-07T00:33:10.961Z,3.37
2022-12-07T00:34:10.952Z,3.47
2022-12-07T00:35:10.990Z,3.45
2022-12-07T00:36:10.943Z,3.58
2022-12-07T00:37:10.935Z,3.63
2022-12-07T00:38:10.925Z,3.53
2022-12-07T00:39:10.913Z,3.48
2022-12-07T00:40:10.924Z,3.41
2022-12-07T00:41:10.899Z,3.51
2022-12-07T00:42:10.896Z,3.42
2022-12-07T00:43:11.778Z,3.56
2022-12-07T00:44:10.870Z,3.41
2022-12-07T00:45:10.870Z,3.47
2022-12-07T00:46:10.913Z,3.48
2022-12-07T00:47:10.869Z,3.48
2022-12-07T00:48:10.843Z,3.50
2022-12-07T00:49:11.853Z,3.31
2022-12-07T00:50:10.835Z,3.41
2022-12-07T00:51:10.821Z,3.36
2022-12-07T00:52:10.812Z,3.32
2022-12-07T00:53:10.829Z,3.40
2022-12-07T00:54:10.808Z,3.34
2022-12-07T00:55:10.791Z,3.40
2022-12-07T00:56:10.783Z,3.44
2022-12-07T00:57:10.794Z,3.44
2022-12-07T00:58:10.784Z,3.42
2022-12-07T00:59:10.764Z,3.41
2022-12-07T01:00:10.759Z,3.55
2022-12-07T01:01:10.864Z,3.55
2022-12-07T01:02:10.736Z,3.58
2022-12-07T01:03:10.797Z,3.65
2022-12-07T01:04:10.722Z,3.65
2022-12-07T01:05:10.726Z,3.65
2022-12-07T01:06:10.705Z,3.68
2022-12-07T01:07:10.698Z,3.65
2022-12-07T01:08:10.812Z,3.62
2022-12-07T01:09:10.698Z,3.65
2022-12-07T01:10:10.693Z,3.44
2022-12-07T01:11:10.666Z,3.48
2022-12-07T01:12:10.677Z,3.29
2022-12-07T01:13:10.771Z,3.29
2022-12-07T01:14:10.939Z,3.29
2022-12-07T01:15:11.045Z,3.34
2022-12-07T01:16:10.672Z,3.34
2022-12-07T01:17:10.732Z,3.28
2022-12-07T01:18:10.617Z,3.22
2022-12-07T01:19:10.610Z,3.16
2022-12-07T01:20:10.596Z,3.16
2022-12-07T01:21:10.592Z,3.22
2022-12-07T01:22:10.579Z,3.11
2022-12-07T01:23:10.576Z,3.13
2022-12-07T01:24:10.581Z,3.23
2022-12-07T01:25:10.564Z,3.14
2022-12-07T01:26:10.554Z,3.13
2022-12-07T01:27:10.542Z,3.37
2022-12-07T01:28:10.532Z,3.32
2022-12-07T01:29:10.539Z,3.28
2022-12-07T01:30:10.516Z,3.31
2022-12-07T01:31:10.537Z,3.34
2022-12-07T01:32:10.498Z,3.31
2022-12-07T01:33:10.491Z,3.31
2022-12-07T01:34:10.489Z,3.37
2022-12-07T01:35:10.477Z,3.36
2022-12-07T01:36:10.466Z,3.37
2022-12-07T01:37:10.483Z,3.40
2022-12-07T01:38:10.452Z,3.45
2022-12-07T01:39:10.456Z,3.50
2022-12-07T01:40:10.442Z,3.60
2022-12-07T01:41:10.432Z,3.50
2022-12-07T01:42:10.421Z,3.47
2022-12-07T01:43:10.412Z,3.41
2022-12-07T01:44:10.419Z,3.42
2022-12-07T01:45:10.396Z,3.42
2022-12-07T01:46:10.446Z,3.48
2022-12-07T01:47:10.383Z,3.36
2022-12-07T01:48:10.376Z,3.41
2022-12-07T01:49:10.373Z,3.34
2022-12-07T01:50:10.368Z,3.36
2022-12-07T01:51:10.350Z,3.42
2022-12-07T01:52:10.854Z,3.48
2022-12-07T01:53:10.339Z,3.45
2022-12-07T01:54:10.337Z,3.36
2022-12-07T01:55:10.334Z,3.40
2022-12-07T01:56:10.309Z,3.47
2022-12-07T01:57:10.303Z,3.40
2022-12-07T01:58:10.296Z,3.36
2022-12-07T01:59:10.425Z,3.36
2022-12-07T02:00:10.319Z,3.32
2022-12-07T02:01:10.357Z,3.40
2022-12-07T02:02:10.320Z,3.41
2022-12-07T02:03:10.701Z,3.40
2022-12-07T02:04:10.252Z,3.48
2022-12-07T02:05:10.266Z,3.47
2022-12-07T02:06:10.243Z,3.44
2022-12-07T02:07:10.228Z,3.48
2022-12-07T02:08:10.283Z,3.45
2022-12-07T02:09:10.221Z,3.53
2022-12-07T02:10:10.207Z,3.65
2022-12-07T02:11:10.204Z,3.65
2022-12-07T02:12:10.190Z,3.73
2022-12-07T02:13:10.195Z,3.63
2022-12-07T02:14:10.172Z,3.77
2022-12-07T02:15:10.166Z,3.76
2022-12-07T02:16:10.321Z,3.78
2022-12-07T02:17:10.165Z,3.88
2022-12-07T02:18:10.151Z,3.86
2022-12-07T02:19:10.138Z,3.91
2022-12-07T02:20:10.125Z,3.96
2022-12-07T02:21:10.143Z,3.88
2022-12-07T02:22:10.121Z,3.95
2022-12-07T02:23:10.105Z,3.94
2022-12-07T02:24:10.097Z,3.98
2022-12-07T02:25:10.098Z,3.99
2022-12-07T02:26:10.104Z,3.95
2022-12-07T02:27:10.078Z,3.96
2022-12-07T02:28:10.068Z,3.96
2022-12-07T02:29:10.070Z,3.94
2022-12-07T02:30:10.049Z,3.96
2022-12-07T02:31:10.081Z,3.95
2022-12-07T02:32:10.033Z,3.96
2022-12-07T02:33:10.029Z,3.92
2022-12-07T02:34:10.027Z,3.95
2022-12-07T02:35:10.018Z,3.86
2022-12-07T02:36:10.005Z,3.95
2022-12-07T02:37:10.001Z,3.98
2022-12-07T02:38:09.990Z,3.91
2022-12-07T02:39:09.977Z,3.84
2022-12-07T02:40:09.979Z,3.92
2022-12-07T02:41:09.962Z,3.87
2022-12-07T02:42:09.961Z,3.91
2022-12-07T02:43:09.951Z,3.92
2022-12-07T02:44:09.942Z,3.83
2022-12-07T02:45:09.932Z,3.91
2022-12-07T02:46:09.967Z,3.92
2022-12-07T02:47:09.928Z,3.86
2022-12-07T02:48:09.908Z,3.87
2022-12-07T02:49:09.913Z,3.88
2022-12-07T02:50:09.898Z,3.95
2022-12-07T02:51:09.884Z,3.96
2022-12-07T02:52:09.886Z,3.95
2022-12-07T02:53:09.875Z,3.99
2022-12-07T02:54:09.866Z,4.08
2022-12-07T02:55:09.858Z,3.98
2022-12-07T02:56:09.858Z,4.06
2022-12-07T02:57:09.852Z,4.01
2022-12-07T02:58:09.835Z,3.91
2022-12-07T02:59:09.835Z,3.94
2022-12-07T03:00:09.817Z,3.99
2022-12-07T03:01:09.905Z,4.01
2022-12-07T03:02:09.824Z,4.02
2022-12-07T03:03:09.852Z,3.95
2022-12-07T03:04:09.794Z,3.99
2022-12-07T03:05:09.788Z,4.08
2022-12-07T03:06:09.788Z,4.06
2022-12-07T03:07:09.769Z,4.14
2022-12-07T03:08:09.788Z,4.16
2022-12-07T03:09:09.750Z,4.26
2022-12-07T03:10:09.755Z,4.20
2022-12-07T03:11:09.732Z,4.26
2022-12-07T03:12:10.739Z,4.19
2022-12-07T03:13:09.722Z,4.20
2022-12-07T03:14:09.719Z,4.20
2022-12-07T03:15:09.703Z,4.22
2022-12-07T03:16:09.770Z,4.23
2022-12-07T03:17:09.695Z,4.14
2022-12-07T03:18:09.682Z,4.16
2022-12-07T03:19:09.681Z,4.12
2022-12-07T03:20:09.675Z,4.05
2022-12-07T03:21:09.676Z,4.02
2022-12-07T03:22:10.296Z,4.04
2022-12-07T03:23:09.647Z,4.06
2022-12-07T03:24:09.638Z,4.08
2022-12-07T03:25:09.629Z,4.13
2022-12-07T03:26:09.625Z,4.16
2022-12-07T03:27:09.617Z,4.12
2022-12-07T03:28:09.614Z,4.20
2022-12-07T03:29:09.598Z,4.05
2022-12-07T03:30:09.592Z,3.98
2022-12-07T03:31:09.646Z,3.95
2022-12-07T03:32:09.582Z,3.94
2022-12-07T03:33:09.577Z,4.12
2022-12-07T03:34:09.560Z,4.08
2022-12-07T03:35:09.550Z,4.16
2022-12-07T03:36:09.541Z,4.16
2022-12-07T03:37:09.535Z,4.19
2022-12-07T03:38:09.545Z,4.24
2022-12-07T03:39:09.538Z,4.17
2022-12-07T03:40:09.535Z,4.08
2022-12-07T03:41:09.499Z,4.08
2022-12-07T03:42:09.527Z,4.17
2022-12-07T03:43:09.514Z,3.98
2022-12-07T03:44:09.483Z,3.94
2022-12-07T03:45:09.471Z,4.13
2022-12-07T03:46:09.497Z,4.13
2022-12-07T03:47:09.469Z,4.10
2022-12-07T03:48:09.481Z,4.16
2022-12-07T03:49:09.442Z,4.20
2022-12-07T03:50:09.444Z,4.14
2022-12-07T03:51:09.421Z,4.24
2022-12-07T03:52:09.418Z,4.32
2022-12-07T03:53:09.414Z,4.32
2022-12-07T03:54:09.404Z,4.41
2022-12-07T03:55:09.395Z,4.28
2022-12-07T03:56:09.388Z,4.34
2022-12-07T03:57:09.378Z,4.31
2022-12-07T03:58:09.376Z,4.37
2022-12-07T03:59:09.372Z,4.22
2022-12-07T04:00:09.355Z,4.31
2022-12-07T04:01:09.352Z,4.26
2022-12-07T04:02:09.403Z,4.31
2022-12-07T04:03:09.480Z,4.38
2022-12-07T04:04:09.326Z,4.34
2022-12-07T04:05:09.321Z,4.32
2022-12-07T04:06:09.307Z,4.35
2022-12-07T04:07:09.302Z,4.34
2022-12-07T04:08:09.401Z,4.23
2022-12-07T04:09:09.291Z,4.40
2022-12-07T04:10:09.283Z,4.42
2022-12-07T04:11:09.268Z,4.41
2022-12-07T04:12:09.256Z,4.40
2022-12-07T04:13:09.268Z,4.41
2022-12-07T04:14:09.247Z,4.38
2022-12-07T04:15:09.232Z,4.52
2022-12-07T04:16:09.250Z,4.45
2022-12-07T04:17:09.219Z,4.44
2022-12-07T04:18:09.214Z,4.45
2022-12-07T04:19:09.202Z,4.45
2022-12-07T04:20:09.195Z,4.52
2022-12-07T04:21:09.185Z,4.59
2022-12-07T04:22:09.184Z,4.52
2022-12-07T04:23:09.174Z,4.48
2022-12-07T04:24:09.172Z,4.48
2022-12-07T04:25:09.155Z,4.34
2022-12-07T04:26:09.152Z,4.40
2022-12-07T04:27:09.141Z,4.37
2022-12-07T04:28:09.132Z,4.37
2022-12-07T04:29:09.132Z,4.45
2022-12-07T04:30:09.133Z,4.49
2022-12-07T04:31:09.143Z,4.67
2022-12-07T04:32:09.096Z,4.58
2022-12-07T04:33:09.091Z,4.53
2022-12-07T04:34:09.078Z,4.55
2022-12-07T04:35:10.077Z,4.59
2022-12-07T04:36:09.070Z,4.55
2022-12-07T04:37:09.061Z,4.55
2022-12-07T04:38:09.072Z,4.62
2022-12-07T04:39:09.045Z,4.62
2022-12-07T04:40:09.057Z,4.67
2022-12-07T04:41:09.031Z,4.63
2022-12-07T04:42:09.026Z,4.67
2022-12-07T04:43:09.021Z,4.60
2022-12-07T04:44:09.024Z,4.75
2022-12-07T04:45:09.004Z,4.78
2022-12-07T04:46:08.987Z,4.74
2022-12-07T04:47:09.089Z,4.74
2022-12-07T04:48:08.986Z,4.73
2022-12-07T04:49:08.969Z,4.70
2022-12-07T04:50:08.959Z,4.89
2022-12-07T04:51:08.954Z,4.82
2022-12-07T04:52:08.952Z,4.92
2022-12-07T04:53:08.940Z,4.89
2022-12-07T04:54:08.927Z,4.78
2022-12-07T04:55:08.918Z,4.80
2022-12-07T04:56:08.912Z,4.78
2022-12-07T04:57:08.913Z,4.77
2022-12-07T04:58:08.901Z,4.87
2022-12-07T04:59:08.892Z,4.82
2022-12-07T05:00:08.888Z,4.87
2022-12-07T05:01:08.966Z,4.78
2022-12-07T05:02:08.941Z,4.82
2022-12-07T05:03:08.991Z,4.82
2022-12-07T05:04:08.861Z,4.96
2022-12-07T05:05:08.839Z,4.82
2022-12-07T05:06:13.195Z,4.82
2022-12-07T05:07:09.823Z,4.90
2022-12-07T05:08:08.879Z,4.82
2022-12-07T05:09:08.803Z,4.89
2022-12-07T05:10:09.796Z,4.87
2022-12-07T05:11:08.790Z,4.86
2022-12-07T05:12:08.781Z,4.75
2022-12-07T05:13:08.780Z,4.78
2022-12-07T05:14:08.779Z,4.75
2022-12-07T05:15:08.764Z,4.78
2022-12-07T05:16:08.810Z,4.87
2022-12-07T05:17:08.743Z,4.77
2022-12-07T05:18:08.738Z,4.73
2022-12-07T05:19:08.744Z,4.80
2022-12-07T05:20:08.718Z,4.82
2022-12-07T05:21:08.727Z,4.84
2022-12-07T05:22:08.705Z,4.71
2022-12-07T05:23:08.698Z,4.71
2022-12-07T05:24:08.696Z,4.82
2022-12-07T05:25:08.682Z,4.78
2022-12-07T05:26:08.674Z,4.74
2022-12-07T05:27:08.670Z,4.73
2022-12-07T05:28:08.652Z,4.78
2022-12-07T05:29:09.392Z,4.90
2022-12-07T05:30:08.646Z,4.84
2022-12-07T05:31:09.377Z,4.93
2022-12-07T05:32:08.671Z,4.93
2022-12-07T05:33:08.619Z,4.90
2022-12-07T05:34:08.607Z,4.90
2022-12-07T05:35:08.601Z,4.94
2022-12-07T05:36:08.592Z,4.89
2022-12-07T05:37:08.581Z,4.92
2022-12-07T05:38:08.589Z,4.92
2022-12-07T05:39:08.565Z,4.87
2022-12-07T05:40:08.559Z,4.86
2022-12-07T05:41:08.544Z,4.99
2022-12-07T05:42:08.539Z,4.90
2022-12-07T05:43:08.528Z,4.87
2022-12-07T05:44:08.532Z,4.78
2022-12-07T05:45:08.519Z,4.80
2022-12-07T05:46:08.569Z,4.89
2022-12-07T05:47:08.496Z,4.82
2022-12-07T05:48:09.325Z,4.89
2022-12-07T05:49:08.495Z,4.78
2022-12-07T05:50:08.488Z,4.86
2022-12-07T05:51:08.466Z,4.87
2022-12-07T05:52:08.457Z,4.90
2022-12-07T05:53:08.456Z,4.94
2022-12-07T05:54:08.474Z,4.92
2022-12-07T05:55:08.440Z,4.86
2022-12-07T05:56:08.462Z,4.92
2022-12-07T05:57:08.463Z,5.04
2022-12-07T05:58:08.414Z,4.96
2022-12-07T05:59:08.500Z,4.97
2022-12-07T06:00:08.466Z,4.92
2022-12-07T06:01:08.392Z,4.97
2022-12-07T06:02:08.613Z,4.93
2022-12-07T06:03:08.464Z,4.90
2022-12-07T06:04:08.381Z,4.94
2022-12-07T06:05:08.383Z,5.02
2022-12-07T06:06:08.384Z,5.04
2022-12-07T06:07:08.412Z,5.02
2022-12-07T06:08:08.372Z,4.93
2022-12-07T06:09:08.336Z,5.04
2022-12-07T06:10:08.331Z,4.97
2022-12-07T06:11:08.324Z,4.93
2022-12-07T06:12:08.310Z,4.86
2022-12-07T06:13:08.312Z,4.90
2022-12-07T06:14:08.292Z,4.78
2022-12-07T06:15:08.292Z,4.84
2022-12-07T06:16:08.319Z,4.77
2022-12-07T06:17:08.356Z,4.78
2022-12-07T06:18:08.275Z,4.73
2022-12-07T06:19:08.263Z,4.66
2022-12-07T06:20:08.250Z,4.77
2022-12-07T06:21:08.242Z,4.75
2022-12-07T06:22:08.226Z,4.78
2022-12-07T06:23:08.223Z,4.74
2022-12-07T06:24:08.219Z,4.82
2022-12-07T06:25:08.896Z,4.75
2022-12-07T06:26:09.198Z,4.80
2022-12-07T06:27:08.191Z,4.82
2022-12-07T06:28:08.185Z,4.82
2022-12-07T06:29:08.174Z,4.73
2022-12-07T06:30:08.174Z,4.80
2022-12-07T06:31:13.479Z,4.75
2022-12-07T06:32:10.222Z,4.74
2022-12-07T06:33:08.151Z,4.80
2022-12-07T06:34:08.143Z,4.63
2022-12-07T06:35:08.146Z,4.71
2022-12-07T06:36:08.118Z,4.60
2022-12-07T06:37:08.438Z,4.60
2022-12-07T06:38:08.097Z,4.55
2022-12-07T06:39:08.106Z,4.41
2022-12-07T06:40:08.086Z,4.37
2022-12-07T06:41:08.076Z,4.41
2022-12-07T06:42:08.103Z,4.34
2022-12-07T06:43:08.066Z,4.30
2022-12-07T06:44:08.055Z,4.34
2022-12-07T06:45:08.045Z,4.31
2022-12-07T06:46:08.108Z,4.32
2022-12-07T06:47:38.860Z,4.35
2022-12-07T06:48:10.043Z,4.38
2022-12-07T06:49:08.006Z,4.34
2022-12-07T06:50:08.026Z,4.31
2022-12-07T06:51:07.990Z,4.28
2022-12-07T06:52:07.987Z,4.30
2022-12-07T06:53:07.994Z,4.34
2022-12-07T06:54:07.967Z,4.40
2022-12-07T06:55:07.970Z,4.37
2022-12-07T06:56:07.946Z,4.37
2022-12-07T06:57:07.946Z,4.31
2022-12-07T06:58:07.934Z,4.40
2022-12-07T06:59:07.923Z,4.34
2022-12-07T07:00:07.923Z,4.34
2022-12-07T07:01:07.954Z,4.23
2022-12-07T07:02:07.954Z,4.41
2022-12-07T07:03:07.898Z,4.22
2022-12-07T07:04:07.883Z,4.24
2022-12-07T07:05:08.830Z,4.34
2022-12-07T07:06:07.870Z,4.37
2022-12-07T07:07:07.874Z,4.38
2022-12-07T07:08:23.815Z,4.31
2022-12-07T07:09:09.934Z,4.31
2022-12-07T07:10:07.844Z,4.35
2022-12-07T07:11:07.842Z,4.37
2022-12-07T07:12:09.331Z,4.28
2022-12-07T07:13:07.812Z,4.34
2022-12-07T07:14:07.806Z,4.24
2022-12-07T07:15:07.799Z,4.32
2022-12-07T07:16:07.796Z,4.20
2022-12-07T07:17:07.846Z,4.17
2022-12-07T07:18:08.217Z,4.17
2022-12-07T07:19:08.779Z,4.17
2022-12-07T07:20:07.762Z,4.08
2022-12-07T07:21:07.750Z,4.12
2022-12-07T07:22:07.743Z,4.13
2022-12-07T07:23:07.739Z,4.19
2022-12-07T07:24:07.738Z,4.20
2022-12-07T07:25:07.723Z,4.28
2022-12-07T07:26:07.706Z,4.34
2022-12-07T07:27:07.723Z,4.19
2022-12-07T07:28:07.712Z,4.17
2022-12-07T07:29:08.414Z,4.31
2022-12-07T07:30:07.677Z,4.38
2022-12-07T07:31:07.802Z,4.41
2022-12-07T07:32:07.659Z,4.44
2022-12-07T07:33:07.665Z,4.49
2022-12-07T07:34:07.650Z,4.52
2022-12-07T07:35:07.641Z,4.50
2022-12-07T07:36:07.659Z,4.55
2022-12-07T07:37:07.679Z,4.56
2022-12-07T07:38:07.615Z,4.62
2022-12-07T07:39:07.601Z,4.66
2022-12-07T07:40:07.590Z,4.62
2022-12-07T07:41:07.609Z,4.63
2022-12-07T07:42:07.585Z,4.63
2022-12-07T07:43:07.572Z,4.60
2022-12-07T07:44:07.569Z,4.71
2022-12-07T07:45:07.565Z,4.68
2022-12-07T07:46:07.610Z,4.70
2022-12-07T07:47:07.544Z,4.77
2022-12-07T07:48:07.535Z,4.75
2022-12-07T07:49:07.528Z,4.84
2022-12-07T07:50:07.540Z,4.89
2022-12-07T07:51:07.525Z,4.74
2022-12-07T07:52:07.499Z,4.73
2022-12-07T07:53:07.494Z,4.89
2022-12-07T07:54:07.482Z,4.74
2022-12-07T07:55:07.488Z,4.82
2022-12-07T07:56:07.487Z,4.86
2022-12-07T07:57:07.459Z,4.80
2022-12-07T07:58:07.481Z,4.90
2022-12-07T07:59:07.440Z,4.94
2022-12-07T08:00:07.431Z,4.96
2022-12-07T08:01:07.556Z,4.82
2022-12-07T08:02:07.415Z,4.90
2022-12-07T08:03:07.420Z,4.93
2022-12-07T08:04:07.406Z,4.90
2022-12-07T08:05:07.454Z,4.87
2022-12-07T08:06:07.396Z,4.87
2022-12-07T08:07:07.380Z,4.89
2022-12-07T08:08:07.433Z,4.89
2022-12-07T08:09:07.376Z,4.87
2022-12-07T08:10:07.354Z,4.86
2022-12-07T08:11:07.339Z,5.00
2022-12-07T08:12:07.330Z,5.00
2022-12-07T08:13:07.339Z,4.99
2022-12-07T08:14:07.323Z,5.05
2022-12-07T08:15:07.322Z,4.93
2022-12-07T08:16:07.350Z,4.99
2022-12-07T08:17:07.316Z,4.97
2022-12-07T08:18:07.307Z,5.02
2022-12-07T08:19:07.287Z,4.89
2022-12-07T08:20:07.284Z,4.99
2022-12-07T08:21:07.263Z,4.94
2022-12-07T08:22:07.275Z,4.80
2022-12-07T08:23:07.258Z,4.84
2022-12-07T08:24:07.254Z,4.86
2022-12-07T08:25:07.245Z,4.89
2022-12-07T08:26:07.242Z,4.86
2022-12-07T08:27:07.219Z,4.90
2022-12-07T08:28:07.220Z,4.89
2022-12-07T08:29:07.219Z,4.97
2022-12-07T08:30:07.220Z,4.92
2022-12-07T08:31:07.222Z,4.97
2022-12-07T08:32:09.750Z,4.96
2022-12-07T08:33:08.179Z,5.05
2022-12-07T08:34:07.190Z,5.10
2022-12-07T08:35:08.154Z,5.12
2022-12-07T08:36:07.175Z,5.14
2022-12-07T08:37:07.182Z,5.14
2022-12-07T08:38:07.126Z,5.08
2022-12-07T08:40:09.355Z,5.14
2022-12-07T08:41:07.108Z,5.10
2022-12-07T08:42:07.106Z,4.97
2022-12-07T08:43:07.087Z,5.02
2022-12-07T08:44:07.087Z,5.07
2022-12-07T08:45:07.077Z,5.20
2022-12-07T08:46:07.132Z,5.14
2022-12-07T08:47:07.062Z,5.30
2022-12-07T08:48:07.053Z,5.21
2022-12-07T08:49:07.066Z,5.41
2022-12-07T08:50:07.024Z,5.28
2022-12-07T08:51:07.021Z,5.38
2022-12-07T08:52:07.017Z,5.33
2022-12-07T08:53:07.009Z,5.51
2022-12-07T08:54:06.997Z,5.54
2022-12-07T08:55:06.988Z,5.53
2022-12-07T08:56:06.995Z,5.66
2022-12-07T08:57:07.859Z,5.73
2022-12-07T08:58:07.867Z,5.75
2022-12-07T08:59:06.967Z,5.80
2022-12-07T09:00:07.847Z,5.83
2022-12-07T09:01:06.998Z,5.76
2022-12-07T09:02:07.054Z,5.89
2022-12-07T09:03:06.933Z,5.91
2022-12-07T09:04:06.930Z,5.97
2022-12-07T09:05:09.530Z,5.93
2022-12-07T09:06:08.039Z,5.99
2022-12-07T09:07:06.977Z,6.02
2022-12-07T09:08:06.917Z,6.05
2022-12-07T09:09:07.861Z,5.94
2022-12-07T09:10:06.873Z,5.94
2022-12-07T09:11:06.871Z,5.89
2022-12-07T09:12:06.871Z,5.99
2022-12-07T09:13:06.855Z,5.84
2022-12-07T09:14:06.853Z,5.89
2022-12-07T09:15:06.853Z,6.05
2022-12-07T09:16:06.911Z,6.04
2022-12-07T09:17:06.965Z,5.94
2022-12-07T09:18:07.351Z,6.11
2022-12-07T09:19:06.814Z,6.08
2022-12-07T09:20:06.957Z,6.05
2022-12-07T09:22:14.774Z,6.19
2022-12-07T09:23:14.766Z,6.17
2022-12-07T09:24:14.772Z,6.12
2022-12-07T09:25:14.766Z,6.27
2022-12-07T09:26:14.748Z,6.28
2022-12-07T09:27:15.889Z,6.19
2022-12-07T09:28:15.852Z,6.26
2022-12-07T09:29:15.920Z,6.28
2022-12-07T09:30:15.802Z,6.39
2022-12-07T09:31:24.917Z,6.46
2022-12-07T09:32:17.857Z,6.62
2022-12-07T09:33:15.825Z,6.69
2022-12-07T09:34:15.840Z,6.67
2022-12-07T09:35:15.762Z,6.62
2022-12-07T09:36:15.763Z,6.72
2022-12-07T09:37:15.744Z,6.67
2022-12-07T09:38:16.642Z,6.51
2022-12-07T09:39:15.751Z,6.54
2022-12-07T09:40:15.722Z,6.52
2022-12-07T09:41:15.717Z,6.56
2022-12-07T09:42:15.719Z,6.60
2022-12-07T09:43:15.775Z,6.70
2022-12-07T09:44:15.799Z,6.72
2022-12-07T09:45:15.686Z,6.66
2022-12-07T09:46:15.752Z,6.54
2022-12-07T09:47:15.661Z,6.57
2022-12-07T09:48:15.653Z,6.59
2022-12-07T09:50:22.989Z,6.72
2022-12-07T09:51:24.607Z,6.74
2022-12-07T09:52:22.985Z,6.72
2022-12-07T09:53:24.061Z,6.77
2022-12-07T09:54:24.048Z,6.84
2022-12-07T09:55:24.052Z,6.82
2022-12-07T09:56:24.073Z,6.84
2022-12-07T09:57:24.032Z,6.95
2022-12-07T09:58:24.014Z,6.89
2022-12-07T09:59:24.006Z,6.82
2022-12-07T10:00:24.001Z,6.88
2022-12-07T10:01:24.078Z,6.88
2022-12-07T10:02:24.000Z,6.97
2022-12-07T10:03:24.862Z,6.87
2022-12-07T10:04:24.072Z,7.00
2022-12-07T10:05:25.057Z,6.85
2022-12-07T10:06:24.954Z,6.96
2022-12-07T10:07:23.943Z,6.99
2022-12-07T10:08:24.005Z,6.88
2022-12-07T10:09:23.934Z,6.66
2022-12-07T10:10:24.942Z,6.77
2022-12-07T10:11:23.918Z,6.62
2022-12-07T10:12:23.911Z,6.54
2022-12-07T10:13:23.901Z,6.57
2022-12-07T10:14:44.085Z,6.54
2022-12-07T10:15:25.884Z,6.56
2022-12-07T10:16:23.898Z,6.64
2022-12-07T10:17:23.877Z,6.66
2022-12-07T10:18:25.352Z,6.77
2022-12-07T10:19:23.876Z,6.77
2022-12-07T10:20:23.842Z,6.99
2022-12-07T10:21:23.839Z,6.99
2022-12-07T10:22:28.843Z,7.00
2022-12-07T10:23:25.819Z,7.05
2022-12-07T10:24:23.823Z,7.18
2022-12-07T10:25:23.815Z,7.14
2022-12-07T10:26:23.802Z,7.14
2022-12-07T10:27:23.792Z,7.17
2022-12-07T10:28:23.823Z,7.31
2022-12-07T10:29:23.778Z,7.35
2022-12-07T10:30:23.779Z,7.18
2022-12-07T10:31:23.810Z,7.17
2022-12-07T10:32:23.767Z,7.05
2022-12-07T10:33:23.752Z,7.11
2022-12-07T10:34:23.741Z,6.93
2022-12-07T10:35:23.724Z,7.11
2022-12-07T10:36:23.720Z,7.02
2022-12-07T10:37:23.706Z,7.06
2022-12-07T10:38:23.708Z,6.97
2022-12-07T10:39:23.715Z,7.06
2022-12-07T10:40:23.690Z,6.99
2022-12-07T10:41:23.685Z,6.93
2022-12-07T10:42:24.454Z,6.88
2022-12-07T10:43:23.667Z,6.79
2022-12-07T10:44:23.676Z,6.84
2022-12-07T10:45:23.716Z,6.81
2022-12-07T10:46:23.755Z,6.81
2022-12-07T10:47:23.701Z,6.77
2022-12-07T10:48:23.620Z,6.72
2022-12-07T10:49:23.609Z,6.82
2022-12-07T10:50:23.602Z,6.72
2022-12-07T10:51:23.594Z,6.69
2022-12-07T10:52:23.600Z,6.75
2022-12-07T10:53:23.588Z,6.77
2022-12-07T10:54:23.579Z,6.70
2022-12-07T10:55:23.567Z,6.85
2022-12-07T10:56:24.372Z,6.85
2022-12-07T10:57:23.548Z,6.89
2022-12-07T10:58:23.540Z,6.99
2022-12-07T10:59:23.536Z,6.96
2022-12-07T11:00:23.531Z,7.03
2022-12-07T11:01:24.553Z,6.96
2022-12-07T11:02:23.530Z,6.96
2022-12-07T11:03:23.525Z,6.88
2022-12-07T11:04:23.512Z,6.82
2022-12-07T11:05:23.486Z,6.85
2022-12-07T11:06:23.477Z,6.75
2022-12-07T11:07:23.486Z,6.63
2022-12-07T11:08:23.537Z,6.74
2022-12-07T11:09:45.011Z,6.74
2022-12-07T11:10:25.698Z,6.69
2022-12-07T11:11:23.433Z,6.64
2022-12-07T11:12:23.958Z,6.70
2022-12-07T11:13:28.148Z,6.74
2022-12-07T11:14:25.408Z,6.64
2022-12-07T11:15:23.406Z,6.54
2022-12-07T11:16:23.489Z,6.56
2022-12-07T11:17:23.403Z,6.56
2022-12-07T11:18:25.382Z,6.59
2022-12-07T11:19:27.988Z,6.66
2022-12-07T11:20:25.368Z,6.69
2022-12-07T11:21:23.363Z,6.75
2022-12-07T11:22:23.424Z,6.89
2022-12-07T11:23:23.883Z,6.88
2022-12-07T11:24:23.340Z,6.93
2022-12-07T11:25:28.555Z,7.07
2022-12-07T11:26:25.319Z,6.97
2022-12-07T11:27:23.308Z,6.93
2022-12-07T11:28:23.344Z,7.07
2022-12-07T11:29:23.291Z,7.05
2022-12-07T11:30:23.289Z,7.18
2022-12-07T11:31:28.747Z,7.14
2022-12-07T11:32:25.310Z,7.23
2022-12-07T11:33:23.269Z,7.40
2022-12-07T11:34:23.249Z,7.35
2022-12-07T11:35:23.250Z,7.43
2022-12-07T11:36:23.236Z,7.39
2022-12-07T11:37:23.228Z,7.47
2022-12-07T11:38:26.347Z,7.45
2022-12-07T11:39:24.209Z,7.47
2022-12-07T11:40:23.198Z,7.60
2022-12-07T11:41:23.198Z,7.75
2022-12-07T11:42:23.952Z,7.63
2022-12-07T11:43:23.206Z,7.80
2022-12-07T11:44:27.330Z,7.77
2022-12-07T11:45:24.176Z,7.77
2022-12-07T11:46:23.220Z,7.79
2022-12-07T11:47:24.169Z,7.72
2022-12-07T11:48:23.155Z,7.76
2022-12-07T11:49:23.128Z,7.76
2022-12-07T11:50:23.501Z,7.69
2022-12-07T11:51:23.123Z,7.90
2022-12-07T11:52:23.112Z,7.85
2022-12-07T11:53:23.193Z,7.87
2022-12-07T11:54:23.087Z,7.91
2022-12-07T11:55:23.080Z,7.94
2022-12-07T11:56:23.074Z,7.79
2022-12-07T11:57:23.063Z,7.83
2022-12-07T11:58:23.060Z,7.88
2022-12-07T11:59:23.961Z,7.93
2022-12-07T12:00:23.054Z,8.05
2022-12-07T12:01:23.055Z,7.93
2022-12-07T12:02:23.073Z,7.83
2022-12-07T12:03:23.061Z,7.77
2022-12-07T12:04:23.003Z,7.60
2022-12-07T12:05:23.024Z,7.57
2022-12-07T12:06:23.959Z,7.63
2022-12-07T12:09:40.719Z,7.48
2022-12-07T12:10:24.970Z,7.50
2022-12-07T12:11:22.951Z,7.42
2022-12-07T12:15:24.922Z,7.38
2022-12-07T12:16:23.032Z,7.32
2022-12-07T12:17:23.883Z,7.31
2022-12-07T12:18:22.939Z,7.33
2022-12-07T12:19:22.916Z,7.35
2022-12-07T12:20:23.248Z,7.40
2022-12-07T12:21:22.866Z,7.43
2022-12-07T12:22:23.427Z,7.53
2022-12-07T12:23:23.142Z,7.48
2022-12-07T12:24:22.911Z,7.48
2022-12-07T12:25:22.838Z,7.39
2022-12-07T12:26:22.912Z,7.35
2022-12-07T12:27:22.831Z,7.35
2022-12-07T12:28:22.813Z,7.45
2022-12-07T12:29:22.811Z,7.40
2022-12-07T12:30:22.800Z,7.50
2022-12-07T12:31:22.898Z,7.39
2022-12-07T12:32:22.841Z,7.38
2022-12-07T12:33:22.803Z,7.39
2022-12-07T12:34:22.781Z,7.40
2022-12-07T12:35:22.762Z,7.51
2022-12-07T12:36:22.801Z,7.40
2022-12-07T12:37:22.749Z,7.57
2022-12-07T12:38:22.751Z,7.53
2022-12-07T12:39:22.735Z,7.48
2022-12-07T12:40:22.751Z,7.53
2022-12-07T12:41:22.723Z,7.50
2022-12-07T12:42:22.714Z,7.53
2022-12-07T12:43:22.698Z,7.56
2022-12-07T12:44:22.687Z,7.60
2022-12-07T12:45:22.712Z,7.61
2022-12-07T12:46:22.723Z,7.66
2022-12-07T12:47:22.664Z,7.56
2022-12-07T12:48:22.663Z,7.51
2022-12-07T12:49:22.668Z,7.48
2022-12-07T12:50:22.675Z,7.43
2022-12-07T12:51:22.643Z,7.35
2022-12-07T12:52:22.626Z,7.32
2022-12-07T12:53:22.648Z,7.33
2022-12-07T12:54:22.632Z,7.29
2022-12-07T12:55:22.599Z,7.38
2022-12-07T12:56:22.610Z,7.38
2022-12-07T12:57:22.593Z,7.25
2022-12-07T12:58:22.576Z,7.15
2022-12-07T12:59:23.393Z,7.20
2022-12-07T13:00:22.556Z,7.21
2022-12-07T13:01:23.666Z,7.18
2022-12-07T13:02:22.667Z,7.17
2022-12-07T13:03:22.550Z,7.13
2022-12-07T13:04:22.533Z,7.06
2022-12-07T13:05:22.520Z,6.89
2022-12-07T13:06:22.515Z,6.70
2022-12-07T13:07:22.520Z,6.51
2022-12-07T13:08:22.630Z,6.48
2022-12-07T13:09:22.497Z,6.24
2022-12-07T13:10:22.494Z,6.22
2022-12-07T13:11:22.482Z,6.20
2022-12-07T13:12:22.489Z,5.97
2022-12-07T13:13:22.461Z,6.04
2022-12-07T13:14:22.459Z,5.98
2022-12-07T13:15:22.450Z,5.86
2022-12-07T13:16:22.469Z,5.90
2022-12-07T13:17:22.432Z,5.90
2022-12-07T13:18:22.414Z,6.09
2022-12-07T13:19:22.419Z,6.16
2022-12-07T13:20:22.404Z,6.20
2022-12-07T13:21:22.401Z,6.26
2022-12-07T13:22:22.398Z,6.28
2022-12-07T13:23:22.377Z,6.31
2022-12-07T13:24:22.379Z,6.41
2022-12-07T13:25:23.971Z,6.49
2022-12-07T13:27:28.665Z,6.63
2022-12-07T13:28:28.640Z,6.60